El Dorado, KS (67042)

10:26 PM CDT on August 03, 2015 (GMT -0500)
Towanda Township | | Change Station
CLOSE
Current Station
Personal Weather Station
Location: Towanda, KS
Elevation: 1314 ft
Nearby Weather Stations

Elev 1314 ft 37.82 °N, 97.00 °W | Updated 21 seconds ago

Clear
Clear
79.9 °F
Feels Like 83 °F
N
4.7
Wind Variable Wind from South
Gusts 6.8 mph

Today
High -- | Low -- °F
--% Chance of Precip.
Yesterday
High -- | Low -- °F
Precip. -- in
6:32 AM 8:34 PM
Waning Gibbous, 81% visible
Pressure 29.89 in
Visibility 10.0 miles
Clouds Clear
Heat Index 83 °F
Dew Point 71 °F
Humidity 74%
Rainfall 0.00 in
Snow Depth Not available.
UV 0 out of 12
Pollen 6.90 out of 12
Air Quality Not available.
Flu Activity Not available.
METAR KAAO 040254Z AUTO 16007KT 10SM CLR 28/20 A2993 RMK AO2 SLP120 T02780200 53010 $

More Conditions Fewer Conditions

Pressure 29.89 in
Visibility 10.0 miles
Clouds Clear
Heat Index 83 °F
Dew Point 71 °F
Humidity 74%
Rainfall 0.00 in
Snow Depth Not available.
UV 0 out of 12
Pollen 6.90 out of 12
Air Quality Not available.
Flu Activity Not available.
METAR KAAO 040254Z AUTO 16007KT 10SM CLR 28/20 A2993 RMK AO2 SLP120 T02780200 53010 $

More Conditions Fewer Conditions

10-Day Weather Forecast

×

Almanac

Astronomy

Aug. 03, 2015 Rise Set
Actual Time
Civil Twilight
Nautical Twilight
Astronomical Twilight
Moon
Length of Visible Light
Length of Day
Tomorrow will be .
, % of the Moon is Illuminated

Today's Extremes

State Highs State Lows

Community

WunderPhotos

Upload Photos

1,843,838 photos uploaded!

WunderBlogs® & News

Nearby

Air Quality

  Air Quality AQ Index Pollutant
Not available.

Snow Depth

Station Depth Elevation

Earthquake Activity

City Distance Mag. Time & Date
Minimum magnitude displayed is 2.5.

Coastal Water Temperatures

Place Temperature

Stations

Nearby Weather Stations

Station Location Temp. Windchill Dew Point Humidity Wind Precip. Elev Updated Type